sensor_id;sensor_type;location;lat;lon;timestamp;P1;durP1;ratioP1;P2;durP2;ratioP2
51358;SDS011;37448;51.588;7.248;2023-04-01T00:01:15;3.35;;;0.60;;
51358;SDS011;37448;51.588;7.248;2023-04-01T00:03:16;1.45;;;0.55;;
51358;SDS011;37448;51.588;7.248;2023-04-01T00:05:17;1.40;;;0.75;;
51358;SDS011;37448;51.588;7.248;2023-04-01T00:07:17;2.50;;;0.40;;
51358;SDS011;37448;51.588;7.248;2023-04-01T00:09:17;4.05;;;0.95;;
51358;SDS011;37448;51.588;7.248;2023-04-01T00:11:18;3.72;;;0.85;;
51358;SDS011;37448;51.588;7.248;2023-04-01T00:13:19;3.17;;;1.15;;
51358;SDS011;37448;51.588;7.248;2023-04-01T00:15:20;1.17;;;0.50;;
51358;SDS011;37448;51.588;7.248;2023-04-01T00:17:21;1.10;;;0.50;;
51358;SDS011;37448;51.588;7.248;2023-04-01T00:19:21;1.10;;;0.50;;
51358;SDS011;37448;51.588;7.248;2023-04-01T00:21:21;1.95;;;0.82;;
51358;SDS011;37448;51.588;7.248;2023-04-01T00:23:22;2.35;;;0.60;;
51358;SDS011;37448;51.588;7.248;2023-04-01T00:25:23;2.28;;;0.50;;
51358;SDS011;37448;51.588;7.248;2023-04-01T00:27:23;7.32;;;1.25;;
51358;SDS011;37448;51.588;7.248;2023-04-01T00:29:23;2.97;;;0.95;;
51358;SDS011;37448;51.588;7.248;2023-04-01T00:31:28;2.65;;;0.90;;
51358;SDS011;37448;51.588;7.248;2023-04-01T00:33:28;1.33;;;0.50;;
51358;SDS011;37448;51.588;7.248;2023-04-01T00:35:30;2.58;;;0.90;;
51358;SDS011;37448;51.588;7.248;2023-04-01T00:37:34;2.35;;;1.63;;
51358;SDS011;37448;51.588;7.248;2023-04-01T00:39:35;2.08;;;0.70;;
51358;SDS011;37448;51.588;7.248;2023-04-01T00:41:36;0.73;;;0.52;;
51358;SDS011;37448;51.588;7.248;2023-04-01T00:43:36;1.52;;;0.80;;
51358;SDS011;37448;51.588;7.248;2023-04-01T00:45:37;1.13;;;0.90;;
51358;SDS011;37448;51.588;7.248;2023-04-01T00:47:41;2.38;;;0.70;;
51358;SDS011;37448;51.588;7.248;2023-04-01T00:49:42;2.08;;;0.63;;
51358;SDS011;37448;51.588;7.248;2023-04-01T00:51:46;1.65;;;0.50;;
51358;SDS011;37448;51.588;7.248;2023-04-01T00:53:51;1.58;;;0.55;;
51358;SDS011;37448;51.588;7.248;2023-04-01T00:55:55;2.05;;;0.38;;
51358;SDS011;37448;51.588;7.248;2023-04-01T00:57:58;0.95;;;0.60;;
51358;SDS011;37448;51.588;7.248;2023-04-01T01:00:03;2.15;;;1.33;;
51358;SDS011;37448;51.588;7.248;2023-04-01T01:02:08;2.22;;;0.90;;
51358;SDS011;37448;51.588;7.248;2023-04-01T01:10:48;1.88;;;0.32;;
51358;SDS011;37448;51.588;7.248;2023-04-01T01:22:38;1.48;;;0.60;;
51358;SDS011;37448;51.588;7.248;2023-04-01T01:24:58;1.00;;;0.68;;
51358;SDS011;37448;51.588;7.248;2023-04-01T01:27:17;0.85;;;0.75;;
51358;SDS011;37448;51.588;7.248;2023-04-01T01:29:40;0.75;;;0.40;;
51358;SDS011;37448;51.588;7.248;2023-04-01T01:36:56;1.95;;;0.50;;
51358;SDS011;37448;51.588;7.248;2023-04-01T01:39:02;0.63;;;0.40;;
51358;SDS011;37448;51.588;7.248;2023-04-01T01:41:06;3.47;;;0.68;;
51358;SDS011;37448;51.588;7.248;2023-04-01T01:45:11;2.83;;;0.52;;
51358;SDS011;37448;51.588;7.248;2023-04-01T01:47:14;3.65;;;0.60;;
51358;SDS011;37448;51.588;7.248;2023-04-01T01:49:16;0.70;;;0.40;;
51358;SDS011;37448;51.588;7.248;2023-04-01T01:51:19;1.75;;;0.50;;
51358;SDS011;37448;51.588;7.248;2023-04-01T01:53:21;0.57;;;0.40;;
51358;SDS011;37448;51.588;7.248;2023-04-01T01:55:23;0.95;;;0.40;;
51358;SDS011;37448;51.588;7.248;2023-04-01T01:57:31;0.52;;;0.45;;
51358;SDS011;37448;51.588;7.248;2023-04-01T01:59:37;0.90;;;0.50;;
51358;SDS011;37448;51.588;7.248;2023-04-01T02:01:41;2.28;;;0.77;;
51358;SDS011;37448;51.588;7.248;2023-04-01T02:03:47;2.85;;;0.50;;
51358;SDS011;37448;51.588;7.248;2023-04-01T02:05:49;0.95;;;0.60;;
51358;SDS011;37448;51.588;7.248;2023-04-01T02:08:01;1.67;;;0.50;;
51358;SDS011;37448;51.588;7.248;2023-04-01T02:10:06;0.70;;;0.40;;
51358;SDS011;37448;51.588;7.248;2023-04-01T02:12:08;0.55;;;0.30;;
51358;SDS011;37448;51.588;7.248;2023-04-01T02:14:15;1.38;;;0.60;;
51358;SDS011;37448;51.588;7.248;2023-04-01T02:16:28;1.30;;;0.30;;
51358;SDS011;37448;51.588;7.248;2023-04-01T02:18:35;0.93;;;0.65;;
51358;SDS011;37448;51.588;7.248;2023-04-01T02:20:39;4.15;;;0.52;;
51358;SDS011;37448;51.588;7.248;2023-04-01T02:22:41;0.50;;;0.47;;
51358;SDS011;37448;51.588;7.248;2023-04-01T02:24:46;0.80;;;0.30;;
51358;SDS011;37448;51.588;7.248;2023-04-01T02:26:50;0.80;;;0.40;;
51358;SDS011;37448;51.588;7.248;2023-04-01T02:28:52;0.60;;;0.40;;
51358;SDS011;37448;51.588;7.248;2023-04-01T02:30:56;1.20;;;0.65;;
51358;SDS011;37448;51.588;7.248;2023-04-01T02:33:00;0.43;;;0.32;;
51358;SDS011;37448;51.588;7.248;2023-04-01T02:35:01;0.57;;;0.35;;
51358;SDS011;37448;51.588;7.248;2023-04-01T02:37:05;0.77;;;0.55;;
51358;SDS011;37448;51.588;7.248;2023-04-01T02:39:06;1.30;;;0.38;;
51358;SDS011;37448;51.588;7.248;2023-04-01T02:41:08;0.82;;;0.32;;
51358;SDS011;37448;51.588;7.248;2023-04-01T02:43:08;0.63;;;0.40;;
51358;SDS011;37448;51.588;7.248;2023-04-01T02:45:09;1.08;;;0.20;;
51358;SDS011;37448;51.588;7.248;2023-04-01T02:47:10;2.30;;;0.40;;
51358;SDS011;37448;51.588;7.248;2023-04-01T02:49:11;3.85;;;0.60;;
51358;SDS011;37448;51.588;7.248;2023-04-01T02:51:11;0.55;;;0.20;;
51358;SDS011;37448;51.588;7.248;2023-04-01T02:53:11;1.40;;;0.35;;
51358;SDS011;37448;51.588;7.248;2023-04-01T02:55:12;1.48;;;1.02;;
51358;SDS011;37448;51.588;7.248;2023-04-01T02:57:12;1.33;;;0.63;;
51358;SDS011;37448;51.588;7.248;2023-04-01T02:59:13;0.45;;;0.20;;
51358;SDS011;37448;51.588;7.248;2023-04-01T03:01:13;0.90;;;0.45;;
51358;SDS011;37448;51.588;7.248;2023-04-01T03:03:14;0.60;;;0.32;;
51358;SDS011;37448;51.588;7.248;2023-04-01T03:05:14;2.45;;;0.40;;
51358;SDS011;37448;51.588;7.248;2023-04-01T03:07:14;1.02;;;0.32;;
51358;SDS011;37448;51.588;7.248;2023-04-01T03:09:15;0.50;;;0.30;;
51358;SDS011;37448;51.588;7.248;2023-04-01T03:11:16;1.10;;;0.50;;
51358;SDS011;37448;51.588;7.248;2023-04-01T03:13:16;1.13;;;0.90;;
51358;SDS011;37448;51.588;7.248;2023-04-01T03:15:17;1.30;;;0.60;;
51358;SDS011;37448;51.588;7.248;2023-04-01T03:17:17;0.45;;;0.28;;
51358;SDS011;37448;51.588;7.248;2023-04-01T03:19:18;2.78;;;0.65;;
51358;SDS011;37448;51.588;7.248;2023-04-01T03:21:19;1.00;;;0.35;;
51358;SDS011;37448;51.588;7.248;2023-04-01T03:23:21;0.80;;;0.40;;
51358;SDS011;37448;51.588;7.248;2023-04-01T03:25:24;1.35;;;0.30;;
51358;SDS011;37448;51.588;7.248;2023-04-01T03:27:25;1.42;;;0.30;;
51358;SDS011;37448;51.588;7.248;2023-04-01T03:29:25;0.70;;;0.30;;
51358;SDS011;37448;51.588;7.248;2023-04-01T03:31:26;3.10;;;0.45;;
51358;SDS011;37448;51.588;7.248;2023-04-01T03:35:31;1.23;;;0.20;;
51358;SDS011;37448;51.588;7.248;2023-04-01T03:37:31;0.77;;;0.47;;
51358;SDS011;37448;51.588;7.248;2023-04-01T03:39:32;1.35;;;0.40;;
51358;SDS011;37448;51.588;7.248;2023-04-01T03:41:32;1.20;;;0.30;;
51358;SDS011;37448;51.588;7.248;2023-04-01T03:43:36;0.45;;;0.20;;
51358;SDS011;37448;51.588;7.248;2023-04-01T03:45:44;0.70;;;0.40;;
51358;SDS011;37448;51.588;7.248;2023-04-01T03:47:47;0.38;;;0.20;;
51358;SDS011;37448;51.588;7.248;2023-04-01T03:49:47;1.10;;;0.30;;
51358;SDS011;37448;51.588;7.248;2023-04-01T03:51:47;0.77;;;0.38;;
51358;SDS011;37448;51.588;7.248;2023-04-01T03:53:48;0.98;;;0.40;;
51358;SDS011;37448;51.588;7.248;2023-04-01T03:55:50;0.70;;;0.38;;
51358;SDS011;37448;51.588;7.248;2023-04-01T03:57:51;0.40;;;0.30;;
51358;SDS011;37448;51.588;7.248;2023-04-01T03:59:52;0.95;;;0.38;;
51358;SDS011;37448;51.588;7.248;2023-04-01T04:01:52;0.95;;;0.93;;
51358;SDS011;37448;51.588;7.248;2023-04-01T04:03:53;4.68;;;0.93;;
51358;SDS011;37448;51.588;7.248;2023-04-01T04:05:53;1.15;;;0.55;;
51358;SDS011;37448;51.588;7.248;2023-04-01T04:07:55;0.70;;;0.50;;
51358;SDS011;37448;51.588;7.248;2023-04-01T04:09:56;0.93;;;0.43;;
51358;SDS011;37448;51.588;7.248;2023-04-01T04:11:56;0.68;;;0.52;;
51358;SDS011;37448;51.588;7.248;2023-04-01T04:13:57;3.13;;;0.60;;
51358;SDS011;37448;51.588;7.248;2023-04-01T04:15:58;2.35;;;0.77;;
51358;SDS011;37448;51.588;7.248;2023-04-01T04:17:58;2.15;;;0.82;;
51358;SDS011;37448;51.588;7.248;2023-04-01T04:19:59;1.83;;;0.90;;
51358;SDS011;37448;51.588;7.248;2023-04-01T04:21:59;2.08;;;0.68;;
51358;SDS011;37448;51.588;7.248;2023-04-01T04:24:02;1.52;;;0.70;;
51358;SDS011;37448;51.588;7.248;2023-04-01T04:26:18;0.80;;;0.57;;
51358;SDS011;37448;51.588;7.248;2023-04-01T04:28:26;1.25;;;0.80;;
51358;SDS011;37448;51.588;7.248;2023-04-01T04:30:27;1.75;;;0.57;;
51358;SDS011;37448;51.588;7.248;2023-04-01T04:32:28;1.67;;;1.40;;
51358;SDS011;37448;51.588;7.248;2023-04-01T04:34:28;1.60;;;0.80;;
51358;SDS011;37448;51.588;7.248;2023-04-01T04:36:28;3.28;;;0.65;;
51358;SDS011;37448;51.588;7.248;2023-04-01T04:38:29;1.40;;;0.88;;
51358;SDS011;37448;51.588;7.248;2023-04-01T04:40:29;1.35;;;0.57;;
51358;SDS011;37448;51.588;7.248;2023-04-01T04:42:30;1.02;;;0.60;;
51358;SDS011;37448;51.588;7.248;2023-04-01T04:44:36;1.00;;;0.70;;
51358;SDS011;37448;51.588;7.248;2023-04-01T04:46:36;1.25;;;1.02;;
51358;SDS011;37448;51.588;7.248;2023-04-01T04:48:45;3.60;;;0.80;;
51358;SDS011;37448;51.588;7.248;2023-04-01T04:50:50;3.03;;;1.02;;
51358;SDS011;37448;51.588;7.248;2023-04-01T04:52:52;0.82;;;0.70;;
51358;SDS011;37448;51.588;7.248;2023-04-01T04:54:53;1.38;;;0.70;;
51358;SDS011;37448;51.588;7.248;2023-04-01T04:56:53;0.70;;;0.50;;
51358;SDS011;37448;51.588;7.248;2023-04-01T04:58:55;1.25;;;0.40;;
51358;SDS011;37448;51.588;7.248;2023-04-01T05:01:09;1.70;;;0.80;;
51358;SDS011;37448;51.588;7.248;2023-04-01T05:03:13;1.88;;;0.73;;
51358;SDS011;37448;51.588;7.248;2023-04-01T05:05:13;0.68;;;0.57;;
51358;SDS011;37448;51.588;7.248;2023-04-01T05:07:14;2.15;;;0.95;;
51358;SDS011;37448;51.588;7.248;2023-04-01T05:09:15;2.67;;;0.93;;
51358;SDS011;37448;51.588;7.248;2023-04-01T05:11:16;0.93;;;0.50;;
51358;SDS011;37448;51.588;7.248;2023-04-01T05:13:18;1.50;;;1.00;;
51358;SDS011;37448;51.588;7.248;2023-04-01T05:15:20;1.30;;;0.68;;
51358;SDS011;37448;51.588;7.248;2023-04-01T05:17:21;1.73;;;0.75;;
51358;SDS011;37448;51.588;7.248;2023-04-01T05:19:22;0.68;;;0.55;;
51358;SDS011;37448;51.588;7.248;2023-04-01T05:21:22;1.70;;;0.85;;
51358;SDS011;37448;51.588;7.248;2023-04-01T05:23:23;5.88;;;1.00;;
51358;SDS011;37448;51.588;7.248;2023-04-01T05:25:23;0.88;;;0.70;;
51358;SDS011;37448;51.588;7.248;2023-04-01T05:27:23;0.80;;;0.60;;
51358;SDS011;37448;51.588;7.248;2023-04-01T05:29:25;1.83;;;0.90;;
51358;SDS011;37448;51.588;7.248;2023-04-01T05:31:31;1.33;;;0.88;;
51358;SDS011;37448;51.588;7.248;2023-04-01T05:33:32;1.45;;;0.80;;
51358;SDS011;37448;51.588;7.248;2023-04-01T05:35:32;2.38;;;1.13;;
51358;SDS011;37448;51.588;7.248;2023-04-01T05:37:34;1.00;;;0.80;;
51358;SDS011;37448;51.588;7.248;2023-04-01T05:39:36;1.13;;;0.88;;
51358;SDS011;37448;51.588;7.248;2023-04-01T05:41:41;1.25;;;0.77;;
51358;SDS011;37448;51.588;7.248;2023-04-01T05:43:41;1.30;;;0.98;;
51358;SDS011;37448;51.588;7.248;2023-04-01T05:46:01;1.00;;;0.70;;
51358;SDS011;37448;51.588;7.248;2023-04-01T05:48:19;1.60;;;0.88;;
51358;SDS011;37448;51.588;7.248;2023-04-01T05:50:20;2.40;;;0.98;;
51358;SDS011;37448;51.588;7.248;2023-04-01T05:52:20;1.83;;;0.93;;
51358;SDS011;37448;51.588;7.248;2023-04-01T05:54:21;1.40;;;0.70;;
51358;SDS011;37448;51.588;7.248;2023-04-01T05:56:21;2.05;;;0.70;;
51358;SDS011;37448;51.588;7.248;2023-04-01T05:58:25;2.90;;;0.73;;
51358;SDS011;37448;51.588;7.248;2023-04-01T06:00:25;1.30;;;0.73;;
51358;SDS011;37448;51.588;7.248;2023-04-01T06:02:25;0.95;;;0.60;;
51358;SDS011;37448;51.588;7.248;2023-04-01T06:04:28;1.25;;;0.57;;
51358;SDS011;37448;51.588;7.248;2023-04-01T06:06:34;0.90;;;0.70;;
51358;SDS011;37448;51.588;7.248;2023-04-01T06:08:42;1.38;;;0.73;;
51358;SDS011;37448;51.588;7.248;2023-04-01T06:12:56;1.50;;;1.00;;
51358;SDS011;37448;51.588;7.248;2023-04-01T06:32:12;1.80;;;1.05;;
51358;SDS011;37448;51.588;7.248;2023-04-01T06:36:52;1.80;;;1.13;;
51358;SDS011;37448;51.588;7.248;2023-04-01T06:46:40;1.52;;;0.95;;
51358;SDS011;37448;51.588;7.248;2023-04-01T06:49:19;1.00;;;0.90;;
51358;SDS011;37448;51.588;7.248;2023-04-01T06:54:53;1.50;;;1.13;;
51358;SDS011;37448;51.588;7.248;2023-04-01T06:57:49;1.23;;;0.95;;
51358;SDS011;37448;51.588;7.248;2023-04-01T06:59:54;1.67;;;1.08;;
51358;SDS011;37448;51.588;7.248;2023-04-01T07:02:03;1.10;;;0.77;;
51358;SDS011;37448;51.588;7.248;2023-04-01T07:06:26;1.20;;;0.90;;
51358;SDS011;37448;51.588;7.248;2023-04-01T07:08:34;1.83;;;1.35;;
51358;SDS011;37448;51.588;7.248;2023-04-01T07:13:06;1.75;;;1.08;;
51358;SDS011;37448;51.588;7.248;2023-04-01T07:15:36;2.45;;;1.17;;
51358;SDS011;37448;51.588;7.248;2023-04-01T07:17:42;1.98;;;1.13;;
51358;SDS011;37448;51.588;7.248;2023-04-01T07:21:51;2.38;;;1.40;;
51358;SDS011;37448;51.588;7.248;2023-04-01T07:24:05;2.20;;;1.40;;
51358;SDS011;37448;51.588;7.248;2023-04-01T07:28:41;2.10;;;1.30;;
51358;SDS011;37448;51.588;7.248;2023-04-01T07:31:01;2.10;;;1.35;;
51358;SDS011;37448;51.588;7.248;2023-04-01T07:33:26;2.15;;;1.38;;
51358;SDS011;37448;51.588;7.248;2023-04-01T07:40:39;3.47;;;1.60;;
51358;SDS011;37448;51.588;7.248;2023-04-01T07:43:01;1.58;;;1.30;;
51358;SDS011;37448;51.588;7.248;2023-04-01T07:56:58;2.00;;;1.38;;
51358;SDS011;37448;51.588;7.248;2023-04-01T08:02:08;2.55;;;1.80;;
51358;SDS011;37448;51.588;7.248;2023-04-01T08:04:34;2.67;;;1.60;;
51358;SDS011;37448;51.588;7.248;2023-04-01T08:11:54;2.45;;;1.45;;
51358;SDS011;37448;51.588;7.248;2023-04-01T08:15:16;2.80;;;2.00;;
51358;SDS011;37448;51.588;7.248;2023-04-01T08:22:09;2.58;;;1.83;;
51358;SDS011;37448;51.588;7.248;2023-04-01T08:24:35;2.72;;;2.17;;
51358;SDS011;37448;51.588;7.248;2023-04-01T08:26:44;2.42;;;1.80;;
51358;SDS011;37448;51.588;7.248;2023-04-01T08:29:04;2.85;;;1.80;;
51358;SDS011;37448;51.588;7.248;2023-04-01T08:31:31;4.15;;;1.98;;
51358;SDS011;37448;51.588;7.248;2023-04-01T08:33:39;2.92;;;2.17;;
51358;SDS011;37448;51.588;7.248;2023-04-01T08:35:56;2.90;;;2.17;;
51358;SDS011;37448;51.588;7.248;2023-04-01T08:38:05;3.15;;;2.17;;
51358;SDS011;37448;51.588;7.248;2023-04-01T08:52:12;3.88;;;2.70;;
51358;SDS011;37448;51.588;7.248;2023-04-01T08:56:57;3.20;;;2.20;;
51358;SDS011;37448;51.588;7.248;2023-04-01T09:12:22;3.72;;;2.42;;
51358;SDS011;37448;51.588;7.248;2023-04-01T09:17:26;4.10;;;3.10;;
51358;SDS011;37448;51.588;7.248;2023-04-01T09:24:46;6.05;;;3.45;;
51358;SDS011;37448;51.588;7.248;2023-04-01T09:34:19;6.07;;;3.85;;
51358;SDS011;37448;51.588;7.248;2023-04-01T09:41:17;6.50;;;3.97;;
51358;SDS011;37448;51.588;7.248;2023-04-01T09:59:45;10.43;;;4.53;;
51358;SDS011;37448;51.588;7.248;2023-04-01T10:18:44;7.40;;;4.78;;
51358;SDS011;37448;51.588;7.248;2023-04-01T10:36:18;7.15;;;4.35;;
51358;SDS011;37448;51.588;7.248;2023-04-01T10:41:18;4.80;;;3.88;;
51358;SDS011;37448;51.588;7.248;2023-04-01T10:49:10;6.57;;;4.15;;
51358;SDS011;37448;51.588;7.248;2023-04-01T10:51:49;7.97;;;5.10;;
51358;SDS011;37448;51.588;7.248;2023-04-01T10:54:50;7.65;;;4.80;;
51358;SDS011;37448;51.588;7.248;2023-04-01T11:06:14;9.57;;;5.32;;
51358;SDS011;37448;51.588;7.248;2023-04-01T11:20:28;6.45;;;4.15;;
51358;SDS011;37448;51.588;7.248;2023-04-01T11:25:29;5.63;;;3.63;;
51358;SDS011;37448;51.588;7.248;2023-04-01T11:28:11;7.10;;;3.20;;
51358;SDS011;37448;51.588;7.248;2023-04-01T11:33:03;4.70;;;2.70;;
51358;SDS011;37448;51.588;7.248;2023-04-01T11:35:54;4.15;;;3.08;;
51358;SDS011;37448;51.588;7.248;2023-04-01T11:40:47;6.55;;;3.35;;
51358;SDS011;37448;51.588;7.248;2023-04-01T11:45:49;4.20;;;3.03;;
51358;SDS011;37448;51.588;7.248;2023-04-01T11:50:26;4.47;;;3.40;;
51358;SDS011;37448;51.588;7.248;2023-04-01T12:01:43;6.13;;;3.75;;
51358;SDS011;37448;51.588;7.248;2023-04-01T12:10:51;7.03;;;4.07;;
51358;SDS011;37448;51.588;7.248;2023-04-01T12:15:17;5.47;;;3.65;;
51358;SDS011;37448;51.588;7.248;2023-04-01T12:17:29;6.25;;;3.60;;
51358;SDS011;37448;51.588;7.248;2023-04-01T12:20:15;5.55;;;3.90;;
51358;SDS011;37448;51.588;7.248;2023-04-01T12:22:34;4.25;;;2.90;;
51358;SDS011;37448;51.588;7.248;2023-04-01T12:24:42;6.97;;;3.55;;
51358;SDS011;37448;51.588;7.248;2023-04-01T12:26:56;5.68;;;3.45;;
51358;SDS011;37448;51.588;7.248;2023-04-01T12:41:39;5.80;;;3.80;;
51358;SDS011;37448;51.588;7.248;2023-04-01T12:55:46;5.25;;;3.75;;
51358;SDS011;37448;51.588;7.248;2023-04-01T13:00:25;6.30;;;3.88;;
51358;SDS011;37448;51.588;7.248;2023-04-01T13:02:39;5.75;;;3.50;;
51358;SDS011;37448;51.588;7.248;2023-04-01T13:10:08;6.47;;;3.08;;
51358;SDS011;37448;51.588;7.248;2023-04-01T13:12:34;5.82;;;3.60;;
51358;SDS011;37448;51.588;7.248;2023-04-01T13:14:53;7.40;;;3.70;;
51358;SDS011;37448;51.588;7.248;2023-04-01T13:19:34;5.22;;;3.35;;
51358;SDS011;37448;51.588;7.248;2023-04-01T13:24:08;7.03;;;4.32;;
51358;SDS011;37448;51.588;7.248;2023-04-01T13:26:34;5.90;;;3.70;;
51358;SDS011;37448;51.588;7.248;2023-04-01T13:42:40;7.68;;;3.92;;
51358;SDS011;37448;51.588;7.248;2023-04-01T13:44:51;5.57;;;3.35;;
51358;SDS011;37448;51.588;7.248;2023-04-01T13:47:03;6.72;;;3.72;;
51358;SDS011;37448;51.588;7.248;2023-04-01T13:49:19;5.15;;;3.20;;
51358;SDS011;37448;51.588;7.248;2023-04-01T13:51:46;6.28;;;3.35;;
51358;SDS011;37448;51.588;7.248;2023-04-01T13:54:00;6.10;;;3.30;;
51358;SDS011;37448;51.588;7.248;2023-04-01T13:56:16;4.22;;;2.75;;
51358;SDS011;37448;51.588;7.248;2023-04-01T14:03:15;4.53;;;3.08;;
51358;SDS011;37448;51.588;7.248;2023-04-01T14:08:13;6.55;;;4.25;;
51358;SDS011;37448;51.588;7.248;2023-04-01T14:10:18;8.55;;;4.25;;
51358;SDS011;37448;51.588;7.248;2023-04-01T14:13:09;5.20;;;3.28;;
51358;SDS011;37448;51.588;7.248;2023-04-01T14:15:08;3.60;;;2.83;;
51358;SDS011;37448;51.588;7.248;2023-04-01T14:29:36;5.95;;;3.45;;
51358;SDS011;37448;51.588;7.248;2023-04-01T14:32:20;4.85;;;3.00;;
51358;SDS011;37448;51.588;7.248;2023-04-01T14:43:54;6.07;;;3.60;;
51358;SDS011;37448;51.588;7.248;2023-04-01T14:50:46;7.47;;;4.18;;
51358;SDS011;37448;51.588;7.248;2023-04-01T14:53:11;8.52;;;4.60;;
51358;SDS011;37448;51.588;7.248;2023-04-01T14:55:33;9.13;;;5.32;;
51358;SDS011;37448;51.588;7.248;2023-04-01T14:57:44;7.45;;;5.28;;
51358;SDS011;37448;51.588;7.248;2023-04-01T15:02:41;7.47;;;4.93;;
51358;SDS011;37448;51.588;7.248;2023-04-01T15:09:51;7.32;;;4.05;;
51358;SDS011;37448;51.588;7.248;2023-04-01T15:19:09;8.63;;;5.43;;
51358;SDS011;37448;51.588;7.248;2023-04-01T15:21:26;9.93;;;6.22;;
51358;SDS011;37448;51.588;7.248;2023-04-01T15:23:35;8.63;;;5.13;;
51358;SDS011;37448;51.588;7.248;2023-04-01T15:30:36;8.70;;;5.88;;
51358;SDS011;37448;51.588;7.248;2023-04-01T15:33:25;8.60;;;5.90;;
51358;SDS011;37448;51.588;7.248;2023-04-01T15:37:54;8.18;;;5.78;;
51358;SDS011;37448;51.588;7.248;2023-04-01T15:40:07;8.77;;;5.22;;
51358;SDS011;37448;51.588;7.248;2023-04-01T15:45:03;9.77;;;5.65;;
51358;SDS011;37448;51.588;7.248;2023-04-01T15:51:41;9.73;;;6.55;;
51358;SDS011;37448;51.588;7.248;2023-04-01T15:59:00;7.68;;;5.38;;
51358;SDS011;37448;51.588;7.248;2023-04-01T16:03:19;7.60;;;5.13;;
51358;SDS011;37448;51.588;7.248;2023-04-01T16:05:59;8.00;;;4.65;;
51358;SDS011;37448;51.588;7.248;2023-04-01T16:15:37;7.53;;;4.90;;
51358;SDS011;37448;51.588;7.248;2023-04-01T16:17:58;9.60;;;6.10;;
51358;SDS011;37448;51.588;7.248;2023-04-01T16:20:20;6.07;;;4.40;;
51358;SDS011;37448;51.588;7.248;2023-04-01T16:26:50;5.65;;;4.30;;
51358;SDS011;37448;51.588;7.248;2023-04-01T16:28:57;7.15;;;4.40;;
51358;SDS011;37448;51.588;7.248;2023-04-01T16:31:10;7.82;;;4.55;;
51358;SDS011;37448;51.588;7.248;2023-04-01T16:37:45;4.82;;;2.55;;
51358;SDS011;37448;51.588;7.248;2023-04-01T16:40:12;3.78;;;2.53;;
51358;SDS011;37448;51.588;7.248;2023-04-01T16:44:49;5.75;;;3.38;;
51358;SDS011;37448;51.588;7.248;2023-04-01T16:51:13;6.25;;;3.88;;
51358;SDS011;37448;51.588;7.248;2023-04-01T16:53:24;6.60;;;3.35;;
51358;SDS011;37448;51.588;7.248;2023-04-01T16:55:44;9.50;;;5.13;;
51358;SDS011;37448;51.588;7.248;2023-04-01T16:57:50;8.60;;;5.22;;
51358;SDS011;37448;51.588;7.248;2023-04-01T17:02:23;7.43;;;5.28;;
51358;SDS011;37448;51.588;7.248;2023-04-01T17:04:32;5.72;;;4.43;;
51358;SDS011;37448;51.588;7.248;2023-04-01T17:11:24;7.15;;;4.80;;
51358;SDS011;37448;51.588;7.248;2023-04-01T17:13:31;6.35;;;4.47;;
51358;SDS011;37448;51.588;7.248;2023-04-01T17:15:50;7.45;;;4.88;;
51358;SDS011;37448;51.588;7.248;2023-04-01T17:20:35;10.57;;;6.78;;
51358;SDS011;37448;51.588;7.248;2023-04-01T17:22:44;9.70;;;5.45;;
51358;SDS011;37448;51.588;7.248;2023-04-01T17:26:58;7.10;;;5.60;;
51358;SDS011;37448;51.588;7.248;2023-04-01T17:29:16;5.13;;;3.90;;
51358;SDS011;37448;51.588;7.248;2023-04-01T17:33:39;8.15;;;5.63;;
51358;SDS011;37448;51.588;7.248;2023-04-01T17:37:56;7.03;;;4.55;;
51358;SDS011;37448;51.588;7.248;2023-04-01T17:40:11;10.45;;;7.20;;
51358;SDS011;37448;51.588;7.248;2023-04-01T17:42:39;8.60;;;6.63;;
51358;SDS011;37448;51.588;7.248;2023-04-01T17:44:52;9.60;;;5.97;;
51358;SDS011;37448;51.588;7.248;2023-04-01T17:51:19;7.20;;;5.63;;
51358;SDS011;37448;51.588;7.248;2023-04-01T17:53:47;8.52;;;5.55;;
51358;SDS011;37448;51.588;7.248;2023-04-01T17:56:01;8.25;;;5.90;;
51358;SDS011;37448;51.588;7.248;2023-04-01T18:00:33;7.50;;;5.32;;
51358;SDS011;37448;51.588;7.248;2023-04-01T18:05:02;7.97;;;6.13;;
51358;SDS011;37448;51.588;7.248;2023-04-01T18:17:24;10.43;;;6.82;;
51358;SDS011;37448;51.588;7.248;2023-04-01T18:19:30;9.68;;;6.15;;
51358;SDS011;37448;51.588;7.248;2023-04-01T18:21:49;9.07;;;5.70;;
51358;SDS011;37448;51.588;7.248;2023-04-01T18:24:11;7.60;;;5.55;;
51358;SDS011;37448;51.588;7.248;2023-04-01T18:26:33;11.32;;;7.50;;
51358;SDS011;37448;51.588;7.248;2023-04-01T18:28:59;14.13;;;7.93;;
51358;SDS011;37448;51.588;7.248;2023-04-01T18:33:09;7.90;;;5.03;;
51358;SDS011;37448;51.588;7.248;2023-04-01T18:35:24;5.53;;;4.50;;
51358;SDS011;37448;51.588;7.248;2023-04-01T18:37:37;6.75;;;4.95;;
51358;SDS011;37448;51.588;7.248;2023-04-01T18:39:46;5.38;;;3.88;;
51358;SDS011;37448;51.588;7.248;2023-04-01T18:41:54;5.90;;;4.22;;
51358;SDS011;37448;51.588;7.248;2023-04-01T18:48:59;7.10;;;4.00;;
51358;SDS011;37448;51.588;7.248;2023-04-01T18:55:55;3.53;;;2.80;;
51358;SDS011;37448;51.588;7.248;2023-04-01T19:02:33;5.80;;;3.08;;
51358;SDS011;37448;51.588;7.248;2023-04-01T19:04:45;2.95;;;2.13;;
51358;SDS011;37448;51.588;7.248;2023-04-01T19:06:53;4.43;;;2.17;;
51358;SDS011;37448;51.588;7.248;2023-04-01T19:09:00;2.38;;;1.95;;
51358;SDS011;37448;51.588;7.248;2023-04-01T19:11:19;2.08;;;1.88;;
51358;SDS011;37448;51.588;7.248;2023-04-01T19:13:30;2.50;;;2.10;;
51358;SDS011;37448;51.588;7.248;2023-04-01T19:15:49;2.45;;;2.08;;
51358;SDS011;37448;51.588;7.248;2023-04-01T19:23:31;2.95;;;1.85;;
51358;SDS011;37448;51.588;7.248;2023-04-01T19:25:40;3.67;;;2.20;;
51358;SDS011;37448;51.588;7.248;2023-04-01T19:27:52;4.05;;;3.05;;
51358;SDS011;37448;51.588;7.248;2023-04-01T19:32:31;4.13;;;2.65;;
51358;SDS011;37448;51.588;7.248;2023-04-01T19:36:53;2.92;;;2.58;;
51358;SDS011;37448;51.588;7.248;2023-04-01T19:43:54;3.78;;;2.83;;
51358;SDS011;37448;51.588;7.248;2023-04-01T19:46:07;2.92;;;2.17;;
51358;SDS011;37448;51.588;7.248;2023-04-01T19:51:14;3.22;;;2.20;;
51358;SDS011;37448;51.588;7.248;2023-04-01T19:53:25;2.70;;;1.80;;
51358;SDS011;37448;51.588;7.248;2023-04-01T19:55:47;2.85;;;2.10;;
51358;SDS011;37448;51.588;7.248;2023-04-01T19:58:03;2.92;;;2.22;;
51358;SDS011;37448;51.588;7.248;2023-04-01T20:00:07;5.15;;;2.35;;
51358;SDS011;37448;51.588;7.248;2023-04-01T20:02:26;2.47;;;2.20;;
51358;SDS011;37448;51.588;7.248;2023-04-01T20:04:34;5.82;;;2.70;;
51358;SDS011;37448;51.588;7.248;2023-04-01T20:11:25;3.10;;;2.42;;
51358;SDS011;37448;51.588;7.248;2023-04-01T20:16:06;2.05;;;1.85;;
51358;SDS011;37448;51.588;7.248;2023-04-01T20:18:18;4.15;;;1.83;;
51358;SDS011;37448;51.588;7.248;2023-04-01T20:20:29;3.20;;;1.73;;
51358;SDS011;37448;51.588;7.248;2023-04-01T20:24:45;3.97;;;2.50;;
51358;SDS011;37448;51.588;7.248;2023-04-01T20:26:49;3.67;;;2.40;;
51358;SDS011;37448;51.588;7.248;2023-04-01T20:29:02;3.72;;;2.47;;
51358;SDS011;37448;51.588;7.248;2023-04-01T20:33:28;3.33;;;2.38;;
51358;SDS011;37448;51.588;7.248;2023-04-01T20:41:09;3.28;;;2.10;;
51358;SDS011;37448;51.588;7.248;2023-04-01T20:52:49;3.42;;;2.42;;
51358;SDS011;37448;51.588;7.248;2023-04-01T20:57:18;3.65;;;2.10;;
51358;SDS011;37448;51.588;7.248;2023-04-01T21:01:55;4.30;;;2.50;;
51358;SDS011;37448;51.588;7.248;2023-04-01T21:06:21;3.47;;;2.47;;
51358;SDS011;37448;51.588;7.248;2023-04-01T21:14:06;3.55;;;2.40;;
51358;SDS011;37448;51.588;7.248;2023-04-01T21:20:58;3.53;;;2.97;;
51358;SDS011;37448;51.588;7.248;2023-04-01T21:25:35;4.18;;;2.90;;
51358;SDS011;37448;51.588;7.248;2023-04-01T21:28:04;3.20;;;2.10;;
51358;SDS011;37448;51.588;7.248;2023-04-01T21:37:26;3.17;;;2.05;;
51358;SDS011;37448;51.588;7.248;2023-04-01T21:44:40;5.18;;;3.17;;
51358;SDS011;37448;51.588;7.248;2023-04-01T21:54:03;3.38;;;2.88;;